createdAt,value
2019-01-09T00:02:29.051Z,100116.91
2019-01-09T00:05:36.891Z,100108.42
2019-01-09T00:08:44.091Z,100119.66
2019-01-09T00:11:51.388Z,100117.41
2019-01-09T00:14:59.894Z,100116.33
2019-01-09T00:18:16.992Z,100108.19
2019-01-09T00:21:24.986Z,100123.75
2019-01-09T00:24:32.475Z,100126.30
2019-01-09T00:27:39.686Z,100129.80
2019-01-09T00:30:47.379Z,100134.09
2019-01-09T00:34:04.219Z,100132.30
2019-01-09T00:37:20.899Z,100136.83
2019-01-09T00:40:28.089Z,100149.95
2019-01-09T00:43:35.273Z,100154.30
2019-01-09T00:46:42.474Z,100150.48
2019-01-09T00:49:49.679Z,100177.05
2019-01-09T00:52:56.968Z,100172.06
2019-01-09T00:56:04.158Z,100173.58
2019-01-09T00:59:11.354Z,100172.31
2019-01-09T01:02:55.456Z,100184.91
2019-01-09T01:07:00.645Z,100190.82
2019-01-09T01:10:53.557Z,100206.14
2019-01-09T01:15:04.548Z,100214.48
2019-01-09T01:18:53.874Z,100222.30
2019-01-09T01:22:53.900Z,100229.91
2019-01-09T01:26:21.890Z,100235.69
2019-01-09T01:29:49.655Z,100239.54
2019-01-09T01:33:35.457Z,100243.53
2019-01-09T01:37:19.588Z,100257.48
2019-01-09T01:40:38.981Z,100266.16
2019-01-09T01:44:36.251Z,100277.84
2019-01-09T01:48:21.397Z,100273.81
2019-01-09T01:52:11.274Z,100275.66
2019-01-09T01:56:26.397Z,100288.13
2019-01-09T01:59:39.774Z,100297.70
2019-01-09T02:03:19.270Z,100317.25
2019-01-09T02:07:11.103Z,100326.25
2019-01-09T02:10:58.575Z,100326.16
2019-01-09T02:14:42.293Z,100331.67
2019-01-09T02:17:56.114Z,100330.33
2019-01-09T02:21:32.720Z,100329.14
2019-01-09T02:25:10.826Z,100334.88
2019-01-09T02:28:34.304Z,100335.63
2019-01-09T02:32:07.322Z,100332.93
2019-01-09T02:35:14.716Z,100357.08
2019-01-09T02:38:22.024Z,100352.52
2019-01-09T02:41:29.332Z,100352.13
2019-01-09T02:44:36.450Z,100351.64
2019-01-09T02:47:43.724Z,100354.14
2019-01-09T02:50:50.930Z,100348.36
2019-01-09T02:53:58.318Z,100347.48
2019-01-09T02:57:05.864Z,100362.63
2019-01-09T03:00:22.239Z,100351.75
2019-01-09T03:03:29.426Z,100366.66
2019-01-09T03:06:46.120Z,100365.22
2019-01-09T03:09:53.322Z,100363.29
2019-01-09T03:13:00.517Z,100366.05
2019-01-09T03:16:07.819Z,100374.11
2019-01-09T03:19:15.006Z,100387.44
2019-01-09T03:22:34.224Z,100393.11
2019-01-09T03:25:41.474Z,100381.06
2019-01-09T03:28:48.873Z,100396.44
2019-01-09T03:32:05.372Z,100384.62
2019-01-09T03:35:12.558Z,100395.16
2019-01-09T03:38:19.754Z,100393.47
2019-01-09T03:41:27.131Z,100403.13
2019-01-09T03:44:43.714Z,100395.56
2019-01-09T03:47:50.835Z,100401.07
2019-01-09T03:50:57.938Z,100403.13
2019-01-09T03:54:05.231Z,100410.27
2019-01-09T03:57:12.441Z,100409.52
2019-01-09T04:00:18.901Z,100414.27
2019-01-09T04:03:26.362Z,100409.55
2019-01-09T04:06:41.629Z,100412.48
2019-01-09T04:09:42.657Z,100407.86
2019-01-09T04:12:49.853Z,100420.93
2019-01-09T04:15:56.993Z,100428.54
2019-01-09T04:19:04.304Z,100417.67
2019-01-09T04:22:11.798Z,100440.03
2019-01-09T04:25:19.750Z,100434.89
2019-01-09T04:28:26.947Z,100445.36
2019-01-09T04:31:34.135Z,100439.31
2019-01-09T04:34:41.258Z,100444.89
2019-01-09T04:37:48.401Z,100441.23
2019-01-09T04:40:55.517Z,100446.80
2019-01-09T04:44:03.142Z,100448.08
2019-01-09T04:47:10.590Z,100436.95
2019-01-09T04:50:17.721Z,100451.23
2019-01-09T04:53:25.092Z,100447.78
2019-01-09T04:56:32.426Z,100445.69
2019-01-09T04:59:39.606Z,100448.58
2019-01-09T05:02:46.248Z,100446.41
2019-01-09T05:05:53.455Z,100450.89
2019-01-09T05:09:00.689Z,100456.01
2019-01-09T05:12:07.817Z,100456.33
2019-01-09T05:15:15.034Z,100455.57
2019-01-09T05:18:22.332Z,100453.87
2019-01-09T05:21:28.414Z,100458.36
2019-01-09T05:24:35.714Z,100458.31
2019-01-09T05:27:42.993Z,100454.72
2019-01-09T05:30:50.123Z,100455.20
2019-01-09T05:34:06.852Z,100467.48
2019-01-09T05:37:13.978Z,100469.16
2019-01-09T05:40:21.098Z,100471.25
2019-01-09T05:43:28.202Z,100477.67
2019-01-09T05:46:35.355Z,100476.73
2019-01-09T05:49:42.589Z,100492.95
2019-01-09T05:52:49.813Z,100510.98
2019-01-09T05:55:57.041Z,100511.89
2019-01-09T05:59:04.150Z,100518.55
2019-01-09T06:02:11.281Z,100518.55
2019-01-09T06:05:18.397Z,100517.75
2019-01-09T06:08:25.599Z,100523.66
2019-01-09T06:11:32.753Z,100521.13
2019-01-09T06:14:39.999Z,100536.17
2019-01-09T06:17:47.491Z,100532.03
2019-01-09T06:20:54.622Z,100530.77
2019-01-09T06:24:01.752Z,100539.98
2019-01-09T06:27:08.961Z,100548.92
2019-01-09T06:30:16.259Z,100545.45
2019-01-09T06:33:23.382Z,100547.69
2019-01-09T06:36:30.885Z,100546.98
2019-01-09T06:39:38.186Z,100544.65
2019-01-09T06:42:54.853Z,100552.41
2019-01-09T06:46:01.975Z,100561.36
2019-01-09T06:49:09.162Z,100565.53
2019-01-09T06:52:16.282Z,100565.97
2019-01-09T06:55:23.517Z,100574.67
2019-01-09T06:58:30.668Z,100573.41
2019-01-09T07:01:37.799Z,100577.61
2019-01-09T07:04:45.016Z,100588.12
2019-01-09T07:07:52.138Z,100608.39
2019-01-09T07:10:59.264Z,100618.72
2019-01-09T07:14:06.891Z,100621.73
2019-01-09T07:17:14.079Z,100627.13
2019-01-09T07:20:21.300Z,100632.27
2019-01-09T07:23:28.425Z,100632.30
2019-01-09T07:26:45.083Z,100635.08
2019-01-09T07:29:52.277Z,100632.11
2019-01-09T07:32:59.505Z,100645.02
2019-01-09T07:36:06.727Z,100631.80
2019-01-09T07:39:13.847Z,100645.42
2019-01-09T07:42:21.181Z,100642.69
2019-01-09T07:45:37.832Z,100645.53
2019-01-09T07:48:45.051Z,100652.21
2019-01-09T07:51:52.173Z,100661.99
2019-01-09T07:54:59.462Z,100657.32
2019-01-09T07:58:06.762Z,100668.30
2019-01-09T08:01:23.374Z,100667.41
2019-01-09T08:04:32.412Z,100678.52
2019-01-09T08:07:39.445Z,100694.08
2019-01-09T08:10:56.161Z,100695.78
2019-01-09T08:14:03.446Z,100702.69
2019-01-09T08:17:20.077Z,100709.06
2019-01-09T08:20:27.259Z,100713.30
2019-01-09T08:23:34.457Z,100725.20
2019-01-09T08:26:41.673Z,100726.22
2019-01-09T08:29:48.843Z,100737.20
2019-01-09T08:32:55.959Z,100736.97
2019-01-09T08:36:03.049Z,100738.21
2019-01-09T08:39:10.250Z,100745.55
2019-01-09T08:42:17.541Z,100761.81
2019-01-09T08:45:24.729Z,100770.75
2019-01-09T08:48:31.866Z,100784.70
2019-01-09T08:51:39.075Z,100783.27
2019-01-09T08:54:46.359Z,100787.34
2019-01-09T08:57:53.752Z,100806.34
2019-01-09T09:01:10.430Z,100792.81
2019-01-09T09:04:17.563Z,100800.67
2019-01-09T09:07:25.731Z,100799.80
2019-01-09T09:10:33.067Z,100805.31
2019-01-09T09:13:40.807Z,100810.84
2019-01-09T09:16:47.937Z,100814.59
2019-01-09T09:19:55.092Z,100823.00
2019-01-09T09:23:02.226Z,100833.95
2019-01-09T09:26:09.619Z,100827.64
2019-01-09T09:29:16.855Z,100831.78
2019-01-09T09:32:24.085Z,100834.48
2019-01-09T09:35:31.287Z,100839.38
2019-01-09T09:38:38.491Z,100840.17
2019-01-09T09:41:45.607Z,100836.83
2019-01-09T09:45:02.475Z,100840.95
2019-01-09T09:48:09.762Z,100845.59
2019-01-09T09:51:26.368Z,100848.77
2019-01-09T09:54:33.654Z,100853.86
2019-01-09T09:57:40.785Z,100859.75
2019-01-09T10:00:47.553Z,100867.77
2019-01-09T10:03:55.838Z,100868.53
2019-01-09T10:07:03.047Z,100870.88
2019-01-09T10:10:11.322Z,100874.55
2019-01-09T10:13:18.441Z,100876.39
2019-01-09T10:16:25.635Z,100884.01
2019-01-09T10:19:32.830Z,100884.38
2019-01-09T10:22:40.075Z,100890.62
2019-01-09T10:25:47.466Z,100879.28
2019-01-09T10:29:03.985Z,100884.57
2019-01-09T10:32:11.173Z,100886.70
2019-01-09T10:35:18.402Z,100880.36
2019-01-09T10:38:38.185Z,100883.66
2019-01-09T10:41:43.931Z,100892.11
2019-01-09T10:45:00.667Z,100897.06
2019-01-09T10:48:17.494Z,100888.56
2019-01-09T10:51:24.637Z,100893.69
2019-01-09T10:54:31.759Z,100896.17
2019-01-09T10:57:39.045Z,100890.63
2019-01-09T11:00:46.242Z,100896.17
2019-01-09T11:03:51.859Z,100899.41
2019-01-09T11:06:58.981Z,100905.46
2019-01-09T11:10:06.051Z,100905.61
2019-01-09T11:13:14.109Z,100908.41
2019-01-09T11:16:21.336Z,100913.14
2019-01-09T11:19:27.794Z,100917.11
2019-01-09T11:22:34.911Z,100915.00
2019-01-09T11:25:42.203Z,100914.16
2019-01-09T11:28:49.594Z,100920.45
2019-01-09T11:32:06.255Z,100919.16
2019-01-09T11:35:14.307Z,100924.70
2019-01-09T11:38:21.486Z,100928.05
2019-01-09T11:41:28.687Z,100926.34
2019-01-09T11:44:46.199Z,100938.05
2019-01-09T11:47:53.630Z,100941.61
2019-01-09T11:51:10.148Z,100942.88
2019-01-09T11:54:17.338Z,100946.84
2019-01-09T11:57:24.457Z,100951.20
2019-01-09T12:00:31.641Z,100949.42
2019-01-09T12:03:38.775Z,100963.94
2019-01-09T12:06:45.916Z,100954.05
2019-01-09T12:09:53.043Z,100963.39
2019-01-09T12:13:00.277Z,100966.79
2019-01-09T12:16:08.232Z,100960.80
2019-01-09T12:19:15.647Z,100970.93
2019-01-09T12:22:22.847Z,100970.98
2019-01-09T12:25:30.069Z,100973.41
2019-01-09T12:28:37.335Z,100968.06
2019-01-09T12:31:44.573Z,100983.69
2019-01-09T12:34:51.665Z,100978.78
2019-01-09T12:37:58.866Z,100983.52
2019-01-09T12:41:05.982Z,100989.73
2019-01-09T12:44:13.277Z,100991.84
2019-01-09T12:47:20.488Z,100996.06
2019-01-09T12:50:27.692Z,101001.28
2019-01-09T12:53:34.806Z,100999.61
2019-01-09T12:56:41.939Z,100999.18
2019-01-09T12:59:48.023Z,100996.57
2019-01-09T13:02:55.221Z,101001.17
2019-01-09T13:06:02.342Z,101007.92
2019-01-09T13:09:10.358Z,101008.33
2019-01-09T13:12:26.815Z,101011.59
2019-01-09T13:15:34.005Z,101020.52
2019-01-09T13:18:41.130Z,101027.52
2019-01-09T13:21:48.248Z,101030.94
2019-01-09T13:24:55.464Z,101044.57
2019-01-09T13:28:02.590Z,101048.40
2019-01-09T13:31:09.706Z,101051.38
2019-01-09T13:34:16.837Z,101052.61
2019-01-09T13:37:23.955Z,101054.77
2019-01-09T13:40:31.272Z,101062.31
2019-01-09T13:43:38.609Z,101067.44
2019-01-09T13:46:45.798Z,101071.11
2019-01-09T13:49:52.927Z,101077.59
2019-01-09T13:53:00.053Z,101079.70
2019-01-09T13:56:07.168Z,101087.27
2019-01-09T13:59:15.424Z,101094.84
2019-01-09T14:02:22.615Z,101102.41
2019-01-09T14:05:29.773Z,101104.56
2019-01-09T14:08:37.055Z,101110.50
2019-01-09T14:11:44.546Z,101121.47
2019-01-09T14:14:51.667Z,101118.91
2019-01-09T14:17:58.964Z,101114.80
2019-01-09T14:21:06.280Z,101121.54
2019-01-09T14:24:13.600Z,101126.61
2019-01-09T14:27:20.801Z,101138.02
2019-01-09T14:30:29.019Z,101149.89
2019-01-09T14:33:36.149Z,101151.16
2019-01-09T14:36:43.425Z,101161.75
2019-01-09T14:39:50.649Z,101168.16
2019-01-09T14:42:57.958Z,101167.75
2019-01-09T14:46:05.164Z,101157.16
2019-01-09T14:49:12.423Z,101173.69
2019-01-09T14:52:19.627Z,101168.59
2019-01-09T14:55:26.817Z,101169.02
2019-01-09T14:58:34.011Z,101172.78
2019-01-09T15:01:41.206Z,101182.08
2019-01-09T15:04:48.435Z,101181.22
2019-01-09T15:07:55.633Z,101186.74
2019-01-09T15:11:02.824Z,101192.72
2019-01-09T15:14:10.126Z,101185.48
2019-01-09T15:17:17.504Z,101194.34
2019-01-09T15:20:24.638Z,101195.14
2019-01-09T15:23:31.766Z,101194.80
2019-01-09T15:26:38.919Z,101202.34
2019-01-09T15:29:46.103Z,101198.58
2019-01-09T15:32:53.366Z,101202.73
2019-01-09T15:36:00.720Z,101205.29
2019-01-09T15:39:09.172Z,101202.36
2019-01-09T15:42:16.377Z,101222.65
2019-01-09T15:45:33.972Z,101217.55
2019-01-09T15:48:41.185Z,101213.84
2019-01-09T15:51:57.898Z,101219.72
2019-01-09T15:55:15.339Z,101228.59
2019-01-09T15:58:22.637Z,101236.25
2019-01-09T16:01:28.825Z,101229.55
2019-01-09T16:04:36.125Z,101241.26
2019-01-09T16:07:43.502Z,101237.06
2019-01-09T16:10:50.620Z,101242.53
2019-01-09T16:13:57.752Z,101247.17
2019-01-09T16:17:05.044Z,101258.66
2019-01-09T16:20:17.027Z,101253.56
2019-01-09T16:23:22.080Z,101254.38
2019-01-09T16:26:29.467Z,101259.48
2019-01-09T16:29:36.591Z,101267.53
2019-01-09T16:32:43.715Z,101261.53
2019-01-09T16:35:50.878Z,101267.47
2019-01-09T16:38:57.993Z,101273.05
2019-01-09T16:42:05.355Z,101276.82
2019-01-09T16:45:12.671Z,101287.42
2019-01-09T16:48:19.810Z,101287.84
2019-01-09T16:51:27.014Z,101291.68
2019-01-09T16:54:34.244Z,101300.12
2019-01-09T16:57:41.553Z,101300.56
2019-01-09T17:00:48.947Z,101304.06
2019-01-09T17:03:56.072Z,101306.92
2019-01-09T17:07:02.966Z,101317.51
2019-01-09T17:10:10.989Z,101322.58
2019-01-09T17:13:27.712Z,101325.50
2019-01-09T17:16:44.305Z,101337.27
2019-01-09T17:19:51.446Z,101347.06
2019-01-09T17:23:08.138Z,101354.61
2019-01-09T17:26:15.265Z,101353.05
2019-01-09T17:29:22.847Z,101358.16
2019-01-09T17:32:39.254Z,101355.14
2019-01-09T17:35:46.675Z,101372.11
2019-01-09T17:39:03.608Z,101369.08
2019-01-09T17:42:20.661Z,101381.73
2019-01-09T17:45:27.950Z,101389.87
2019-01-09T17:48:35.073Z,101397.97
2019-01-09T17:51:52.227Z,101398.70
2019-01-09T17:54:59.347Z,101408.52
2019-01-09T17:58:06.530Z,101414.86
2019-01-09T18:01:13.657Z,101414.88
2019-01-09T18:04:21.113Z,101418.23
2019-01-09T18:07:37.742Z,101413.16
2019-01-09T18:10:50.050Z,101433.95
2019-01-09T18:14:06.283Z,101423.31
2019-01-09T18:17:23.048Z,101432.20
2019-01-09T18:20:39.761Z,101438.09
2019-01-09T18:23:56.448Z,101433.47
2019-01-09T18:27:03.651Z,101440.69
2019-01-09T18:30:14.302Z,101456.83
2019-01-09T18:33:39.461Z,101455.05
2019-01-09T18:37:03.347Z,101456.77
2019-01-09T18:40:59.204Z,101461.40
2019-01-09T18:44:33.001Z,101465.28
2019-01-09T18:48:33.821Z,101475.86
2019-01-09T18:52:28.609Z,101473.69
2019-01-09T18:55:45.191Z,101483.84
2019-01-09T18:58:52.680Z,101485.16
2019-01-09T19:02:09.244Z,101496.95
2019-01-09T19:05:25.876Z,101502.47
2019-01-09T19:08:33.105Z,101509.23
2019-01-09T19:11:40.302Z,101504.61
2019-01-09T19:14:47.686Z,101503.36
2019-01-09T19:18:04.292Z,101510.09
2019-01-09T19:21:20.970Z,101524.91
2019-01-09T19:24:37.703Z,101521.10
2019-01-09T19:27:54.463Z,101516.86
2019-01-09T19:31:11.193Z,101519.83
2019-01-09T19:34:28.873Z,101530.41
2019-01-09T19:37:36.070Z,101543.11
2019-01-09T19:40:59.810Z,101538.02
2019-01-09T19:44:07.186Z,101554.98
2019-01-09T19:47:14.325Z,101559.22
2019-01-09T19:50:23.063Z,101560.05
2019-01-09T19:53:30.266Z,101568.92
2019-01-09T19:56:37.468Z,101575.68
2019-01-09T19:59:44.658Z,101574.86
2019-01-09T20:02:51.904Z,101574.85
2019-01-09T20:05:59.167Z,101582.49
2019-01-09T20:09:08.696Z,101585.45
2019-01-09T20:12:25.644Z,101594.75
2019-01-09T20:15:32.984Z,101596.42
2019-01-09T20:18:40.236Z,101590.52
2019-01-09T20:21:47.464Z,101597.72
2019-01-09T20:24:54.629Z,101596.84
2019-01-09T20:28:01.769Z,101596.86
2019-01-09T20:31:08.915Z,101600.66
2019-01-09T20:34:16.294Z,101602.38
2019-01-09T20:37:23.406Z,101603.65
2019-01-09T20:40:30.599Z,101614.61
2019-01-09T20:43:37.922Z,101618.44
2019-01-09T20:46:45.035Z,101618.41
2019-01-09T20:49:52.332Z,101622.23
2019-01-09T20:52:59.808Z,101626.44
2019-01-09T20:56:07.190Z,101631.09
2019-01-09T20:59:14.448Z,101629.81
2019-01-09T21:02:21.615Z,101641.23
2019-01-09T21:05:32.096Z,101639.55
2019-01-09T21:08:39.256Z,101641.24
2019-01-09T21:11:46.569Z,101654.80
2019-01-09T21:14:53.676Z,101662.79
2019-01-09T21:18:00.970Z,101663.64
2019-01-09T21:21:08.248Z,101667.87
2019-01-09T21:24:15.453Z,101667.89
2019-01-09T21:27:22.795Z,101670.84
2019-01-09T21:30:29.967Z,101672.96
2019-01-09T21:33:46.697Z,101674.64
2019-01-09T21:36:53.998Z,101678.88
2019-01-09T21:40:14.121Z,101689.00
2019-01-09T21:43:30.612Z,101692.41
2019-01-09T21:46:45.883Z,101694.09
2019-01-09T21:49:46.546Z,101707.20
2019-01-09T21:52:53.823Z,101698.30
2019-01-09T21:56:01.031Z,101705.94
2019-01-09T21:59:17.672Z,101710.58
2019-01-09T22:02:24.857Z,101717.33
2019-01-09T22:05:32.045Z,101717.33
2019-01-09T22:08:48.909Z,101725.34
2019-01-09T22:12:02.394Z,101732.95
2019-01-09T22:15:07.811Z,101733.79
2019-01-09T22:18:15.002Z,101735.48
2019-01-09T22:21:22.278Z,101735.09
2019-01-09T22:24:29.468Z,101740.97
2019-01-09T22:27:36.659Z,101740.16
2019-01-09T22:30:43.849Z,101743.08
2019-01-09T22:33:51.046Z,101746.89
2019-01-09T22:36:58.260Z,101743.52
2019-01-09T22:40:06.900Z,101745.63
2019-01-09T22:43:14.330Z,101751.97
2019-01-09T22:46:21.523Z,101748.61
2019-01-09T22:49:28.642Z,101748.16
2019-01-09T22:52:35.837Z,101753.20
2019-01-09T22:55:43.027Z,101756.62
2019-01-09T22:58:50.179Z,101755.31
2019-01-09T23:01:57.533Z,101755.34
2019-01-09T23:05:04.098Z,101745.99
2019-01-09T23:08:11.479Z,101746.45
2019-01-09T23:11:18.597Z,101750.25
2019-01-09T23:14:25.899Z,101751.97
2019-01-09T23:17:33.192Z,101744.33
2019-01-09T23:20:40.393Z,101747.29
2019-01-09T23:23:47.076Z,101740.95
2019-01-09T23:26:54.326Z,101743.48
2019-01-09T23:30:01.523Z,101745.18
2019-01-09T23:33:08.812Z,101746.87
2019-01-09T23:36:16.191Z,101745.18
2019-01-09T23:39:23.387Z,101748.56
2019-01-09T23:42:30.860Z,101749.83
2019-01-09T23:45:37.973Z,101757.43
2019-01-09T23:48:45.262Z,101754.89
2019-01-09T23:51:52.450Z,101759.54
2019-01-09T23:54:59.566Z,101753.59
2019-01-09T23:58:06.795Z,101757.01
